Time;durP1;ratioP1;P1;durP2;ratioP2;P2;SDS_P1;SDS_P2;PMS_P1;PMS_P2;Temp;Humidity;BMP_temperature;BMP_pressure;BME280_temperature;BME280_humidity;BME280_pressure;Samples;Min_cycle;Max_cycle;Signal;HPM_P1;HPM_P2
2023/07/23 00:01:46;;;;;;;15.00;6.32;;;;;;;;;;4997243;28;20052;-83
2023/07/23 00:04:12;;;;;;;12.48;6.47;;;;;;;;;;4997115;28;20123;-83
2023/07/23 00:06:39;;;;;;;12.25;6.43;;;;;;;;;;5013846;28;20046;-82
2023/07/23 00:09:05;;;;;;;11.90;6.43;;;;;;;;;;4994005;28;20506;-82
2023/07/23 00:11:31;;;;;;;13.73;6.93;;;;;;;;;;4994077;28;20136;-82
2023/07/23 00:13:57;;;;;;;14.40;7.10;;;;;;;;;;5006776;28;20474;-82
2023/07/23 00:16:24;;;;;;;12.27;6.53;;;;;;;;;;5014743;28;20515;-82
2023/07/23 00:18:50;;;;;;;13.38;7.25;;;;;;;;;;4996985;28;20096;-83
2023/07/23 00:21:16;;;;;;;18.10;7.55;;;;;;;;;;4983056;28;20129;-83
2023/07/23 00:23:42;;;;;;;17.35;7.30;;;;;;;;;;4994674;28;20046;-83
2023/07/23 00:26:08;;;;;;;14.73;7.85;;;;;;;;;;4989556;28;20034;-83
2023/07/23 00:28:34;;;;;;;16.50;7.57;;;;;;;;;;4995737;28;20041;-84
2023/07/23 00:31:00;;;;;;;18.23;8.05;;;;;;;;;;4997021;28;20041;-82
2023/07/23 00:33:26;;;;;;;14.82;7.20;;;;;;;;;;4981513;28;20099;-84
2023/07/23 00:35:52;;;;;;;15.75;8.00;;;;;;;;;;4965216;28;20491;-83
2023/07/23 00:38:18;;;;;;;14.95;7.43;;;;;;;;;;4996581;28;20050;-84
2023/07/23 00:40:44;;;;;;;15.65;7.75;;;;;;;;;;4997407;28;20045;-84
2023/07/23 00:43:12;;;;;;;16.00;8.25;;;;;;;;;;4996497;28;20187;-84
2023/07/23 00:45:38;;;;;;;18.23;8.18;;;;;;;;;;4991493;28;20060;-83
2023/07/23 00:48:05;;;;;;;14.85;8.07;;;;;;;;;;4995520;28;20520;-84
2023/07/23 00:50:31;;;;;;;16.55;8.23;;;;;;;;;;4996475;28;20045;-84
2023/07/23 00:52:57;;;;;;;14.25;8.10;;;;;;;;;;5014325;28;20060;-83
2023/07/23 00:55:23;;;;;;;15.48;7.88;;;;;;;;;;4980923;28;20034;-82
2023/07/23 00:57:49;;;;;;;15.05;7.60;;;;;;;;;;4996867;28;20116;-83
2023/07/23 01:00:16;;;;;;;19.35;8.52;;;;;;;;;;4996160;28;20049;-83
2023/07/23 01:02:42;;;;;;;17.60;8.52;;;;;;;;;;4994851;28;20046;-83
2023/07/23 01:05:08;;;;;;;13.90;7.10;;;;;;;;;;5014312;28;20042;-82
2023/07/23 01:07:35;;;;;;;15.77;7.72;;;;;;;;;;5014329;28;20041;-83
2023/07/23 01:10:03;;;;;;;14.55;8.18;;;;;;;;;;5013610;28;20129;-82
2023/07/23 01:12:30;;;;;;;12.15;7.65;;;;;;;;;;5013974;28;20065;-82
2023/07/23 01:14:57;;;;;;;13.65;7.45;;;;;;;;;;4994020;28;20096;-83
2023/07/23 01:17:24;;;;;;;15.70;7.45;;;;;;;;;;5014565;28;20038;-83
2023/07/23 01:20:01;;;;;;;16.05;7.65;;;;;;;;;;4999550;28;20129;-83
2023/07/23 01:22:27;;;;;;;15.02;7.07;;;;;;;;;;4996667;28;20046;-83
2023/07/23 01:24:53;;;;;;;14.13;7.25;;;;;;;;;;4996790;28;20076;-84
2023/07/23 01:27:20;;;;;;;17.85;7.70;;;;;;;;;;5012831;28;20042;-83
2023/07/23 01:29:46;;;;;;;15.85;7.13;;;;;;;;;;4996624;28;20065;-85
2023/07/23 01:32:12;;;;;;;14.10;7.07;;;;;;;;;;4969811;28;20049;-83
2023/07/23 01:34:38;;;;;;;14.52;6.88;;;;;;;;;;4980805;28;20506;-84
2023/07/23 01:37:04;;;;;;;15.23;7.30;;;;;;;;;;4996599;28;20368;-84
2023/07/23 01:39:33;;;;;;;12.50;6.65;;;;;;;;;;4996300;28;20038;-83
2023/07/23 01:41:59;;;;;;;13.45;6.75;;;;;;;;;;4996141;28;20061;-83
2023/07/23 01:44:25;;;;;;;14.18;7.78;;;;;;;;;;4996387;28;20041;-83
2023/07/23 01:46:51;;;;;;;11.60;7.18;;;;;;;;;;5013893;28;20108;-83
2023/07/23 01:49:17;;;;;;;12.48;7.65;;;;;;;;;;4979840;28;20124;-83
2023/07/23 01:51:43;;;;;;;15.45;7.25;;;;;;;;;;4979207;28;20041;-83
2023/07/23 01:54:09;;;;;;;12.57;7.18;;;;;;;;;;5013479;28;20061;-83
2023/07/23 01:56:35;;;;;;;15.63;7.72;;;;;;;;;;5013815;28;20116;-84
2023/07/23 01:59:01;;;;;;;14.63;7.63;;;;;;;;;;4995538;28;20141;-83
2023/07/23 02:01:29;;;;;;;15.18;7.05;;;;;;;;;;4995600;28;20042;-83
2023/07/23 02:03:55;;;;;;;16.38;7.90;;;;;;;;;;4996002;28;20037;-84
2023/07/23 02:06:21;;;;;;;15.18;7.95;;;;;;;;;;4994870;28;20394;-83
2023/07/23 02:08:47;;;;;;;12.27;7.57;;;;;;;;;;4996130;28;20083;-84
2023/07/23 02:11:13;;;;;;;12.15;7.72;;;;;;;;;;4995493;28;20038;-84
2023/07/23 02:13:40;;;;;;;14.50;7.97;;;;;;;;;;4995765;28;20045;-84
2023/07/23 02:16:06;;;;;;;14.13;8.00;;;;;;;;;;4995152;28;20060;-84
2023/07/23 02:18:32;;;;;;;13.98;7.60;;;;;;;;;;4978260;28;20054;-84
2023/07/23 02:20:58;;;;;;;13.40;7.68;;;;;;;;;;4995727;28;20041;-83
2023/07/23 02:23:24;;;;;;;13.85;7.72;;;;;;;;;;4995138;28;20086;-83
2023/07/23 02:25:50;;;;;;;15.50;7.90;;;;;;;;;;5013223;28;20045;-83
2023/07/23 02:28:17;;;;;;;12.15;7.72;;;;;;;;;;4979428;28;20125;-84
2023/07/23 02:30:43;;;;;;;13.88;7.90;;;;;;;;;;4995312;28;20048;-85
2023/07/23 02:33:09;;;;;;;15.00;7.40;;;;;;;;;;4995563;28;20440;-84
2023/07/23 02:35:38;;;;;;;12.75;7.78;;;;;;;;;;4995345;28;20510;-84
2023/07/23 02:38:05;;;;;;;13.13;7.30;;;;;;;;;;4995686;28;20395;-83
2023/07/23 02:40:34;;;;;;;18.35;7.97;;;;;;;;;;5012541;28;20487;-83
2023/07/23 02:43:01;;;;;;;12.90;7.22;;;;;;;;;;5013029;28;20038;-83
2023/07/23 02:45:27;;;;;;;11.57;7.20;;;;;;;;;;4994638;28;20050;-83
2023/07/23 02:47:53;;;;;;;12.90;7.32;;;;;;;;;;4995418;28;20052;-83
2023/07/23 02:50:19;;;;;;;12.70;6.55;;;;;;;;;;5012307;28;20045;-83
2023/07/23 02:52:45;;;;;;;11.45;6.70;;;;;;;;;;5013099;28;20513;-83
2023/07/23 02:55:12;;;;;;;11.52;7.13;;;;;;;;;;4991650;28;20091;-83
2023/07/23 02:57:38;;;;;;;12.77;6.75;;;;;;;;;;5016029;28;20049;-83
2023/07/23 03:00:04;;;;;;;15.25;7.45;;;;;;;;;;5007612;28;20046;-83
2023/07/23 03:02:30;;;;;;;14.68;7.47;;;;;;;;;;4994724;28;20052;-83
2023/07/23 03:04:57;;;;;;;11.70;6.78;;;;;;;;;;5013163;28;20057;-83
2023/07/23 03:07:23;;;;;;;12.20;7.10;;;;;;;;;;4994307;28;20437;-83
2023/07/23 03:09:49;;;;;;;14.80;7.25;;;;;;;;;;4995100;28;20129;-84
2023/07/23 03:12:15;;;;;;;11.55;6.88;;;;;;;;;;4994289;28;20045;-83
2023/07/23 03:14:42;;;;;;;12.27;7.40;;;;;;;;;;4994915;28;20053;-83
2023/07/23 03:17:08;;;;;;;14.68;7.53;;;;;;;;;;4994587;28;20085;-83
2023/07/23 03:19:34;;;;;;;14.10;7.82;;;;;;;;;;4978575;28;20046;-83
2023/07/23 03:22:00;;;;;;;13.38;8.18;;;;;;;;;;5012287;28;20065;-83
2023/07/23 03:24:26;;;;;;;14.95;7.95;;;;;;;;;;5012305;28;20042;-83
2023/07/23 03:26:52;;;;;;;15.45;8.38;;;;;;;;;;4994547;28;20044;-83
2023/07/23 03:29:18;;;;;;;14.18;8.88;;;;;;;;;;4978210;28;20084;-83
2023/07/23 03:31:44;;;;;;;15.43;8.35;;;;;;;;;;4994240;28;20037;-83
2023/07/23 03:34:10;;;;;;;15.07;8.77;;;;;;;;;;4995061;28;20391;-83
2023/07/23 03:36:36;;;;;;;15.20;8.25;;;;;;;;;;4994482;28;20173;-83
2023/07/23 03:39:02;;;;;;;15.32;9.18;;;;;;;;;;4994317;28;20406;-83
2023/07/23 03:41:28;;;;;;;13.10;8.30;;;;;;;;;;4993862;28;20050;-83
2023/07/23 03:43:54;;;;;;;16.45;8.85;;;;;;;;;;4994716;28;20057;-83
2023/07/23 03:46:20;;;;;;;16.30;9.15;;;;;;;;;;4994652;28;20124;-83
2023/07/23 03:48:47;;;;;;;18.52;9.45;;;;;;;;;;4994543;28;20188;-83
2023/07/23 03:51:15;;;;;;;16.13;8.95;;;;;;;;;;4994170;28;20053;-83
2023/07/23 03:53:42;;;;;;;17.50;8.93;;;;;;;;;;5011211;28;20498;-83
2023/07/23 03:56:08;;;;;;;16.15;9.45;;;;;;;;;;5012049;28;20034;-83
2023/07/23 03:58:34;;;;;;;15.48;8.75;;;;;;;;;;4994067;28;20044;-83
2023/07/23 04:01:00;;;;;;;15.68;8.75;;;;;;;;;;4974766;28;20042;-83
2023/07/23 04:03:26;;;;;;;14.48;8.77;;;;;;;;;;5010189;28;20045;-83
2023/07/23 04:05:52;;;;;;;18.50;8.77;;;;;;;;;;4994114;28;20046;-84
2023/07/23 04:08:18;;;;;;;16.92;9.32;;;;;;;;;;4994413;28;20073;-83
2023/07/23 04:10:44;;;;;;;17.50;8.75;;;;;;;;;;4993855;28;20053;-84
2023/07/23 04:13:10;;;;;;;14.75;8.98;;;;;;;;;;4994314;28;20046;-83
2023/07/23 04:15:37;;;;;;;15.88;9.35;;;;;;;;;;5011435;28;20082;-83
2023/07/23 04:18:10;;;;;;;16.80;8.80;;;;;;;;;;5011757;28;20049;-83
2023/07/23 04:20:36;;;;;;;17.60;9.70;;;;;;;;;;4993734;28;20054;-83
2023/07/23 04:23:02;;;;;;;16.92;9.68;;;;;;;;;;5013156;28;20042;-83
2023/07/23 04:25:28;;;;;;;17.98;9.85;;;;;;;;;;4996919;28;20037;-84
2023/07/23 04:27:54;;;;;;;17.00;9.52;;;;;;;;;;5015433;28;20164;-84
2023/07/23 04:30:20;;;;;;;18.92;9.15;;;;;;;;;;4997470;28;20042;-83
2023/07/23 04:32:46;;;;;;;16.23;9.50;;;;;;;;;;5015273;28;20084;-83
2023/07/23 04:35:12;;;;;;;14.57;8.55;;;;;;;;;;5018231;28;20120;-84
2023/07/23 04:37:38;;;;;;;16.42;9.35;;;;;;;;;;5014819;28;20038;-83
2023/07/23 04:40:04;;;;;;;21.10;10.25;;;;;;;;;;5015326;28;20092;-84
2023/07/23 04:42:31;;;;;;;16.40;9.27;;;;;;;;;;4997329;28;20065;-84
2023/07/23 04:44:57;;;;;;;15.25;9.00;;;;;;;;;;4997176;28;20073;-83
2023/07/23 04:47:23;;;;;;;16.75;9.50;;;;;;;;;;4981044;28;20065;-83
2023/07/23 04:49:49;;;;;;;14.73;9.52;;;;;;;;;;4997247;28;20046;-83
2023/07/23 04:52:15;;;;;;;14.88;8.80;;;;;;;;;;4997003;28;20046;-84
2023/07/23 04:54:41;;;;;;;16.30;9.82;;;;;;;;;;4997230;28;20034;-83
2023/07/23 04:57:07;;;;;;;15.95;9.35;;;;;;;;;;4996303;28;20045;-84
2023/07/23 04:59:33;;;;;;;17.05;9.93;;;;;;;;;;4983126;28;20042;-85
2023/07/23 05:01:59;;;;;;;17.75;10.25;;;;;;;;;;4996870;28;20046;-83
2023/07/23 05:04:26;;;;;;;15.77;9.90;;;;;;;;;;5015056;28;20041;-83
2023/07/23 05:06:52;;;;;;;17.35;9.77;;;;;;;;;;4996926;28;20860;-83
2023/07/23 05:09:18;;;;;;;16.35;9.77;;;;;;;;;;4997102;28;20054;-84
2023/07/23 05:11:44;;;;;;;19.50;9.82;;;;;;;;;;4996563;28;20372;-83
2023/07/23 05:14:10;;;;;;;16.13;10.82;;;;;;;;;;4997218;28;20557;-83
2023/07/23 05:16:36;;;;;;;16.15;10.55;;;;;;;;;;4974728;28;20053;-83
2023/07/23 05:19:03;;;;;;;19.58;10.77;;;;;;;;;;4996705;28;20042;-83
2023/07/23 05:21:30;;;;;;;19.70;11.05;;;;;;;;;;4997086;28;20041;-83
2023/07/23 05:23:56;;;;;;;19.05;11.20;;;;;;;;;;5014245;28;20045;-84
2023/07/23 05:26:22;;;;;;;19.35;11.23;;;;;;;;;;4997218;28;20038;-83
2023/07/23 05:28:48;;;;;;;17.52;10.90;;;;;;;;;;4996131;28;20049;-83
2023/07/23 05:31:14;;;;;;;18.85;10.73;;;;;;;;;;4997091;28;20482;-83
2023/07/23 05:33:41;;;;;;;22.75;11.40;;;;;;;;;;5013747;28;20037;-83
2023/07/23 05:36:07;;;;;;;19.75;10.48;;;;;;;;;;4996673;28;20049;-83
2023/07/23 05:38:33;;;;;;;15.88;9.98;;;;;;;;;;5014027;28;20040;-84
2023/07/23 05:40:59;;;;;;;16.63;10.15;;;;;;;;;;5014206;28;20046;-83
2023/07/23 05:43:25;;;;;;;15.07;9.82;;;;;;;;;;4980011;28;20045;-84
2023/07/23 05:45:51;;;;;;;16.63;9.98;;;;;;;;;;5014029;28;20514;-84
2023/07/23 05:48:17;;;;;;;17.90;10.32;;;;;;;;;;4980353;28;20580;-84
2023/07/23 05:50:43;;;;;;;16.05;10.35;;;;;;;;;;4996099;28;20363;-83
2023/07/23 05:53:10;;;;;;;17.85;10.75;;;;;;;;;;4980153;28;20037;-83
2023/07/23 05:55:36;;;;;;;15.63;10.52;;;;;;;;;;4978280;28;20049;-83
2023/07/23 05:58:02;;;;;;;18.92;10.35;;;;;;;;;;4980186;28;20092;-83
2023/07/23 06:00:28;;;;;;;16.58;10.32;;;;;;;;;;4996027;28;20048;-83
2023/07/23 06:02:55;;;;;;;16.50;10.40;;;;;;;;;;4995676;28;20046;-82
2023/07/23 06:05:21;;;;;;;16.23;10.13;;;;;;;;;;4995936;28;20053;-83
2023/07/23 06:07:47;;;;;;;17.48;10.88;;;;;;;;;;5013219;28;20044;-82
2023/07/23 06:10:13;;;;;;;15.70;10.73;;;;;;;;;;4995723;28;20042;-83
2023/07/23 06:12:39;;;;;;;17.27;9.75;;;;;;;;;;4995437;28;20038;-82
2023/07/23 06:15:05;;;;;;;15.40;10.15;;;;;;;;;;4995510;28;20044;-83
2023/07/23 06:17:32;;;;;;;14.55;9.73;;;;;;;;;;4976533;28;20050;-83
2023/07/23 06:19:58;;;;;;;13.57;9.35;;;;;;;;;;5012981;28;20034;-82
2023/07/23 06:22:24;;;;;;;15.25;9.52;;;;;;;;;;4995830;28;20042;-83
2023/07/23 06:24:50;;;;;;;13.40;9.13;;;;;;;;;;4995218;28;20069;-82
2023/07/23 06:27:16;;;;;;;13.63;9.27;;;;;;;;;;4995760;28;20453;-82
2023/07/23 06:29:43;;;;;;;15.43;9.50;;;;;;;;;;4995616;28;20104;-83
2023/07/23 06:32:10;;;;;;;14.20;9.73;;;;;;;;;;4995304;28;20104;-82
2023/07/23 06:34:36;;;;;;;14.95;9.23;;;;;;;;;;5012772;28;20048;-82
2023/07/23 06:37:02;;;;;;;15.27;9.60;;;;;;;;;;4972470;28;20038;-84
2023/07/23 06:39:28;;;;;;;17.20;9.20;;;;;;;;;;5013626;28;20044;-83
2023/07/23 06:41:54;;;;;;;16.73;9.48;;;;;;;;;;5012528;28;20042;-83
2023/07/23 06:44:20;;;;;;;17.98;9.73;;;;;;;;;;4995825;28;20033;-82
2023/07/23 06:46:46;;;;;;;15.27;9.23;;;;;;;;;;5011346;28;20114;-83
2023/07/23 06:49:13;;;;;;;14.52;9.20;;;;;;;;;;5012773;28;20034;-83
2023/07/23 06:51:39;;;;;;;16.35;8.55;;;;;;;;;;5012690;28;20482;-83
2023/07/23 06:54:05;;;;;;;16.33;8.32;;;;;;;;;;4994671;28;20042;-83
2023/07/23 06:56:31;;;;;;;15.50;8.40;;;;;;;;;;5012915;28;20076;-82
2023/07/23 06:58:57;;;;;;;18.98;8.40;;;;;;;;;;4993804;28;20041;-82
2023/07/23 07:01:24;;;;;;;15.50;8.70;;;;;;;;;;5012588;28;20390;-82
2023/07/23 07:03:50;;;;;;;19.48;7.97;;;;;;;;;;4994484;28;20164;-87
2023/07/23 07:06:16;;;;;;;15.63;8.00;;;;;;;;;;4988474;28;20239;-83
2023/07/23 07:08:44;;;;;;;15.00;8.13;;;;;;;;;;4992573;28;20400;-83
2023/07/23 07:11:10;;;;;;;16.60;8.57;;;;;;;;;;4994612;28;20121;-83
2023/07/23 07:13:37;;;;;;;16.75;8.73;;;;;;;;;;5012645;28;20034;-82
2023/07/23 07:16:03;;;;;;;15.38;8.65;;;;;;;;;;4993750;28;20080;-83
2023/07/23 07:18:29;;;;;;;16.90;8.32;;;;;;;;;;4995258;28;20096;-82
2023/07/23 07:21:00;;;;;;;14.60;8.07;;;;;;;;;;4994504;28;20046;-83
2023/07/23 07:23:26;;;;;;;15.98;8.38;;;;;;;;;;4995062;28;20045;-82
2023/07/23 07:25:54;;;;;;;13.25;7.88;;;;;;;;;;5000790;28;20050;-82
2023/07/23 07:28:20;;;;;;;13.07;8.13;;;;;;;;;;4978700;28;20041;-83
2023/07/23 07:30:46;;;;;;;16.38;8.65;;;;;;;;;;4978179;28;20049;-83
2023/07/23 07:33:12;;;;;;;14.10;8.18;;;;;;;;;;5012385;28;20038;-83
2023/07/23 07:35:38;;;;;;;13.65;7.88;;;;;;;;;;4994182;28;20100;-83
2023/07/23 07:38:04;;;;;;;14.07;8.20;;;;;;;;;;4994553;28;20121;-82
2023/07/23 07:40:31;;;;;;;14.32;8.23;;;;;;;;;;4978954;28;20434;-82
2023/07/23 07:42:57;;;;;;;13.60;8.02;;;;;;;;;;4994270;28;20137;-82
2023/07/23 07:45:24;;;;;;;14.43;8.30;;;;;;;;;;4992872;28;20116;-83
2023/07/23 07:47:50;;;;;;;14.30;8.27;;;;;;;;;;4994964;28;20103;-82
2023/07/23 07:50:16;;;;;;;15.68;8.75;;;;;;;;;;4978166;28;20077;-82
2023/07/23 07:52:42;;;;;;;13.65;9.05;;;;;;;;;;5012377;28;20038;-83
2023/07/23 07:55:08;;;;;;;16.08;8.93;;;;;;;;;;5012050;28;20038;-83
2023/07/23 07:57:34;;;;;;;14.93;8.68;;;;;;;;;;4995100;28;20037;-82
2023/07/23 08:00:06;;;;;;;18.05;8.82;;;;;;;;;;4981975;28;20095;-83
2023/07/23 08:02:33;;;;;;;14.88;8.77;;;;;;;;;;5001704;28;20045;-82
2023/07/23 08:04:59;;;;;;;16.10;9.07;;;;;;;;;;4965808;28;20065;-83
2023/07/23 08:07:25;;;;;;;17.50;8.93;;;;;;;;;;4998534;28;20445;-82
2023/07/23 08:09:53;;;;;;;14.10;8.68;;;;;;;;;;4997128;28;20423;-83
2023/07/23 08:12:19;;;;;;;16.50;8.43;;;;;;;;;;4997200;28;20034;-83
2023/07/23 08:14:46;;;;;;;17.30;8.75;;;;;;;;;;4981424;28;20044;-83
2023/07/23 08:17:12;;;;;;;13.57;8.85;;;;;;;;;;4997388;28;20046;-83
2023/07/23 08:19:38;;;;;;;13.32;8.02;;;;;;;;;;4998221;28;20376;-82
2023/07/23 08:22:05;;;;;;;14.00;8.77;;;;;;;;;;4997563;28;20049;-82
2023/07/23 08:24:31;;;;;;;14.38;8.82;;;;;;;;;;4997710;28;20042;-82
2023/07/23 08:27:01;;;;;;;15.25;8.77;;;;;;;;;;4997595;28;20049;-82
2023/07/23 08:29:28;;;;;;;15.68;8.80;;;;;;;;;;4998007;28;20045;-82
2023/07/23 08:31:56;;;;;;;12.85;8.68;;;;;;;;;;4997643;28;20053;-83
2023/07/23 08:34:22;;;;;;;18.17;9.80;;;;;;;;;;4997464;28;20040;-77
2023/07/23 08:36:49;;;;;;;13.68;8.95;;;;;;;;;;4997712;28;20044;-82
2023/07/23 08:39:15;;;;;;;13.52;8.68;;;;;;;;;;4997846;28;20041;-83
2023/07/23 08:42:09;;;;;;;14.35;8.45;;;;;;;;;;4996539;28;20034;-83
2023/07/23 08:44:38;;;;;;;13.15;8.00;;;;;;;;;;5012425;28;20486;-82
2023/07/23 08:47:15;;;;;;;14.25;8.18;;;;;;;;;;5001014;28;20033;-84
2023/07/23 08:49:42;;;;;;;12.60;8.20;;;;;;;;;;4997697;28;20050;-83
2023/07/23 08:52:08;;;;;;;12.20;8.50;;;;;;;;;;4996594;28;20582;-82
2023/07/23 08:54:34;;;;;;;12.23;7.95;;;;;;;;;;4996975;28;20042;-82
2023/07/23 08:57:01;;;;;;;12.63;7.32;;;;;;;;;;4994941;28;20120;-82
2023/07/23 08:59:28;;;;;;;10.15;6.72;;;;;;;;;;4993383;28;20050;-81
2023/07/23 09:01:54;;;;;;;13.07;7.55;;;;;;;;;;5016095;28;20049;-82
2023/07/23 09:04:20;;;;;;;14.40;8.18;;;;;;;;;;5014436;28;20112;-76
2023/07/23 09:06:46;;;;;;;10.85;7.05;;;;;;;;;;4982792;28;20051;-81
2023/07/23 09:09:13;;;;;;;10.60;6.80;;;;;;;;;;4991924;28;20038;-81
2023/07/23 09:11:39;;;;;;;11.38;7.05;;;;;;;;;;4980654;28;20038;-83
2023/07/23 09:14:09;;;;;;;10.68;6.75;;;;;;;;;;4996862;28;20517;-82
2023/07/23 09:16:37;;;;;;;13.02;7.10;;;;;;;;;;5011794;28;20124;-82
2023/07/23 09:19:03;;;;;;;10.50;7.30;;;;;;;;;;5015089;28;20114;-82
2023/07/23 09:21:29;;;;;;;12.43;7.72;;;;;;;;;;4980069;28;20100;-83
2023/07/23 09:24:02;;;;;;;11.50;7.05;;;;;;;;;;4996848;28;20042;-83
2023/07/23 09:26:28;;;;;;;9.95;7.38;;;;;;;;;;5013503;28;20049;-83
2023/07/23 09:28:59;;;;;;;13.52;7.85;;;;;;;;;;4996760;28;20042;-82
2023/07/23 09:31:31;;;;;;;12.35;7.97;;;;;;;;;;4996386;28;20045;-83
2023/07/23 09:33:58;;;;;;;12.75;7.80;;;;;;;;;;4996667;28;20068;-83
2023/07/23 09:36:25;;;;;;;12.00;7.95;;;;;;;;;;4996043;28;20045;-84
2023/07/23 09:38:59;;;;;;;12.38;8.48;;;;;;;;;;4996964;28;20034;-80
2023/07/23 09:41:28;;;;;;;12.30;7.85;;;;;;;;;;4995759;28;20046;-80
2023/07/23 09:43:55;;;;;;;10.98;7.38;;;;;;;;;;5013917;28;20034;-80
2023/07/23 09:46:21;;;;;;;12.73;8.02;;;;;;;;;;4996245;28;20041;-81
2023/07/23 09:48:50;;;;;;;13.07;7.75;;;;;;;;;;4996613;28;20406;-81
2023/07/23 09:51:16;;;;;;;12.68;7.70;;;;;;;;;;4980470;28;20050;-81
2023/07/23 09:53:45;;;;;;;11.93;7.57;;;;;;;;;;4996674;28;20402;-81
2023/07/23 09:56:12;;;;;;;11.20;7.07;;;;;;;;;;4995128;28;20042;-83
2023/07/23 09:58:39;;;;;;;11.02;7.20;;;;;;;;;;4996230;28;20077;-81
2023/07/23 10:01:06;;;;;;;12.23;6.97;;;;;;;;;;4980052;28;20041;-80
2023/07/23 10:03:32;;;;;;;12.40;7.43;;;;;;;;;;5013829;28;20521;-81
2023/07/23 10:05:59;;;;;;;11.25;7.28;;;;;;;;;;5013365;28;20121;-82
2023/07/23 10:08:26;;;;;;;10.90;7.07;;;;;;;;;;4995471;28;20037;-82
2023/07/23 10:10:53;;;;;;;10.60;7.47;;;;;;;;;;4996317;28;20045;-82
2023/07/23 10:13:19;;;;;;;10.73;7.05;;;;;;;;;;4979711;28;20475;-82
2023/07/23 10:15:46;;;;;;;13.02;7.30;;;;;;;;;;4995822;28;20062;-82
2023/07/23 10:18:13;;;;;;;11.15;7.05;;;;;;;;;;4995499;28;20049;-81
2023/07/23 10:20:39;;;;;;;11.30;6.85;;;;;;;;;;4995388;28;20052;-83
2023/07/23 10:23:06;;;;;;;11.90;7.38;;;;;;;;;;5012911;28;20041;-81
2023/07/23 10:25:34;;;;;;;12.02;7.45;;;;;;;;;;5012334;28;20040;-85
2023/07/23 10:28:10;;;;;;;13.13;7.07;;;;;;;;;;4972132;28;20038;-80
2023/07/23 10:30:37;;;;;;;11.75;6.93;;;;;;;;;;4975446;28;20209;-79
2023/07/23 10:33:09;;;;;;;11.88;7.00;;;;;;;;;;4987685;28;20041;-81
2023/07/23 10:35:54;;;;;;;10.38;7.18;;;;;;;;;;4994806;28;20426;-79
2023/07/23 10:38:27;;;;;;;11.00;6.93;;;;;;;;;;5012392;28;20180;-83
2023/07/23 10:40:54;;;;;;;11.57;7.15;;;;;;;;;;5013310;28;20402;-79
2023/07/23 10:43:20;;;;;;;11.73;7.65;;;;;;;;;;4994811;28;20121;-79
2023/07/23 10:46:06;;;;;;;11.25;6.57;;;;;;;;;;4994885;28;20046;-79
2023/07/23 10:48:38;;;;;;;10.90;7.10;;;;;;;;;;4994008;28;20060;-79
2023/07/23 10:51:06;;;;;;;17.15;7.10;;;;;;;;;;4983126;28;20053;-79
2023/07/23 10:53:33;;;;;;;12.48;7.22;;;;;;;;;;5012291;28;20044;-79
2023/07/23 10:56:02;;;;;;;10.73;7.10;;;;;;;;;;4995160;28;20057;-80
2023/07/23 10:58:28;;;;;;;10.82;7.07;;;;;;;;;;4992697;28;20522;-80
2023/07/23 11:00:56;;;;;;;13.02;7.20;;;;;;;;;;4993353;28;20046;-80
2023/07/23 11:03:23;;;;;;;11.23;7.15;;;;;;;;;;5012033;28;20058;-82
2023/07/23 11:05:50;;;;;;;11.48;7.45;;;;;;;;;;5012290;28;20478;-80
2023/07/23 11:08:18;;;;;;;10.95;7.63;;;;;;;;;;4993991;28;20128;-79
2023/07/23 11:10:53;;;;;;;11.60;7.25;;;;;;;;;;4992173;28;20100;-80
2023/07/23 11:13:20;;;;;;;11.25;6.78;;;;;;;;;;5012482;28;20037;-80
2023/07/23 11:15:47;;;;;;;9.75;6.88;;;;;;;;;;4978411;28;20060;-80
2023/07/23 11:18:13;;;;;;;11.05;6.78;;;;;;;;;;4986754;28;20046;-80
2023/07/23 11:20:49;;;;;;;11.02;6.90;;;;;;;;;;4996361;28;20050;-80
2023/07/23 11:23:16;;;;;;;10.02;6.57;;;;;;;;;;4994615;28;20797;-81
2023/07/23 11:25:43;;;;;;;10.07;6.20;;;;;;;;;;4994635;28;20057;-80
2023/07/23 11:28:09;;;;;;;9.65;6.93;;;;;;;;;;4994033;28;20045;-80
2023/07/23 11:30:35;;;;;;;11.20;7.00;;;;;;;;;;4976532;28;20038;-80
2023/07/23 11:33:02;;;;;;;8.73;6.30;;;;;;;;;;4997688;28;20061;-80
2023/07/23 11:35:29;;;;;;;7.30;5.38;;;;;;;;;;4998266;28;20034;-80
2023/07/23 11:37:55;;;;;;;11.70;6.28;;;;;;;;;;5001092;28;20045;-79
2023/07/23 11:40:22;;;;;;;9.80;6.25;;;;;;;;;;5018986;28;20044;-81
2023/07/23 11:42:48;;;;;;;10.60;5.78;;;;;;;;;;4984816;28;20133;-80
2023/07/23 11:45:14;;;;;;;7.35;4.93;;;;;;;;;;4988824;28;20038;-80
2023/07/23 11:47:50;;;;;;;7.55;5.55;;;;;;;;;;4985001;28;20048;-81
2023/07/23 11:50:16;;;;;;;;;;;;;;;;;;5000478;28;20053;-81
2023/07/23 11:52:42;;;;;;;9.40;5.30;;;;;;;;;;5001015;28;19917;-83
2023/07/23 11:55:25;;;;;;;8.00;5.13;;;;;;;;;;5001117;28;20084;-81
2023/07/23 11:57:55;;;;;;;7.18;5.05;;;;;;;;;;5004788;28;20038;-80
2023/07/23 12:00:29;;;;;;;10.07;4.55;;;;;;;;;;5000499;28;20042;-82
2023/07/23 12:02:57;;;;;;;5.85;4.40;;;;;;;;;;5001028;28;20046;-79
2023/07/23 12:05:23;;;;;;;5.78;4.45;;;;;;;;;;5017846;28;20050;-83
2023/07/23 12:07:51;;;;;;;6.63;4.55;;;;;;;;;;4999317;28;20048;-79
2023/07/23 12:10:17;;;;;;;8.88;4.70;;;;;;;;;;5000728;28;20045;-80
2023/07/23 12:12:47;;;;;;;6.28;5.07;;;;;;;;;;5002486;28;20038;-80
2023/07/23 12:15:14;;;;;;;9.02;5.88;;;;;;;;;;4984890;28;20379;-79
2023/07/23 12:17:40;;;;;;;11.52;5.82;;;;;;;;;;4984566;28;20490;-79
2023/07/23 12:20:08;;;;;;;8.50;6.18;;;;;;;;;;4994685;28;20038;-81
2023/07/23 12:22:34;;;;;;;9.95;6.40;;;;;;;;;;5000351;28;20071;-80
2023/07/23 12:25:00;;;;;;;9.48;7.10;;;;;;;;;;4968471;28;20052;-80
2023/07/23 12:27:26;;;;;;;9.70;6.55;;;;;;;;;;5018654;28;20176;-80
2023/07/23 12:29:52;;;;;;;9.15;6.85;;;;;;;;;;5000339;28;20111;-79
2023/07/23 12:32:19;;;;;;;9.57;7.38;;;;;;;;;;5000399;28;20038;-80
2023/07/23 12:34:46;;;;;;;8.68;6.88;;;;;;;;;;4983874;28;20376;-79
2023/07/23 12:37:14;;;;;;;9.20;6.72;;;;;;;;;;5000688;28;20121;-81
2023/07/23 12:39:40;;;;;;;9.70;6.53;;;;;;;;;;5000345;28;20049;-79
2023/07/23 12:42:06;;;;;;;9.00;6.78;;;;;;;;;;5000571;28;20049;-77
2023/07/23 12:44:33;;;;;;;9.32;6.78;;;;;;;;;;4997611;28;20038;-76
2023/07/23 12:46:59;;;;;;;8.77;7.00;;;;;;;;;;5015043;28;20488;-77
2023/07/23 12:49:25;;;;;;;9.73;7.25;;;;;;;;;;5014599;28;20088;-82
2023/07/23 12:51:51;;;;;;;9.40;7.22;;;;;;;;;;4980830;28;20046;-82
2023/07/23 12:54:17;;;;;;;10.13;7.10;;;;;;;;;;4997588;28;20034;-82
2023/07/23 12:56:44;;;;;;;8.25;6.93;;;;;;;;;;4980632;28;20124;-79
2023/07/23 12:59:10;;;;;;;10.43;6.90;;;;;;;;;;5014735;28;20052;-78
2023/07/23 13:01:36;;;;;;;12.48;6.90;;;;;;;;;;5014264;28;20045;-79
2023/07/23 13:04:02;;;;;;;9.43;7.03;;;;;;;;;;4996578;28;20494;-79
2023/07/23 13:06:28;;;;;;;10.77;7.32;;;;;;;;;;4997011;28;20053;-79
2023/07/23 13:08:55;;;;;;;8.50;6.60;;;;;;;;;;4996778;28;20101;-79
2023/07/23 13:11:21;;;;;;;9.73;6.70;;;;;;;;;;4995110;28;20403;-81
2023/07/23 13:13:48;;;;;;;11.10;6.78;;;;;;;;;;5017887;28;20084;-80
2023/07/23 13:16:14;;;;;;;8.10;6.18;;;;;;;;;;4992339;28;20419;-79
2023/07/23 13:18:40;;;;;;;9.50;6.50;;;;;;;;;;5006067;28;20042;-80
2023/07/23 13:21:06;;;;;;;9.60;6.95;;;;;;;;;;4993806;28;20122;-81
2023/07/23 13:23:32;;;;;;;10.35;7.43;;;;;;;;;;4980987;28;20139;-81
2023/07/23 13:25:58;;;;;;;8.90;7.38;;;;;;;;;;4980338;28;20171;-82
2023/07/23 13:28:24;;;;;;;8.25;7.07;;;;;;;;;;4992741;28;20048;-81
2023/07/23 13:30:50;;;;;;;12.85;6.35;;;;;;;;;;4999785;28;20078;-81
2023/07/23 13:33:17;;;;;;;7.70;6.20;;;;;;;;;;5000842;28;20207;-81
2023/07/23 13:35:43;;;;;;;9.38;5.80;;;;;;;;;;4996588;28;20419;-81
2023/07/23 13:38:09;;;;;;;6.97;4.88;;;;;;;;;;4995673;28;20030;-80
2023/07/23 13:40:36;;;;;;;6.50;4.60;;;;;;;;;;4977532;28;20133;-76
2023/07/23 13:43:02;;;;;;;7.47;4.60;;;;;;;;;;4996435;28;20044;-76
2023/07/23 13:45:28;;;;;;;7.93;4.63;;;;;;;;;;4978582;28;20038;-76
2023/07/23 13:47:54;;;;;;;6.65;5.35;;;;;;;;;;4995386;28;20557;-75
2023/07/23 13:50:20;;;;;;;7.70;6.40;;;;;;;;;;4995694;28;20046;-81
2023/07/23 13:52:47;;;;;;;7.93;6.85;;;;;;;;;;4979616;28;20046;-82
2023/07/23 13:55:13;;;;;;;8.43;6.68;;;;;;;;;;4995068;28;20038;-81
2023/07/23 13:57:39;;;;;;;7.95;6.28;;;;;;;;;;5013717;28;20041;-82
2023/07/23 14:00:06;;;;;;;9.75;6.55;;;;;;;;;;4979702;28;20050;-82
2023/07/23 14:02:32;;;;;;;7.95;6.43;;;;;;;;;;4995451;28;20542;-82
2023/07/23 14:04:59;;;;;;;7.15;6.10;;;;;;;;;;4995662;28;20041;-81
2023/07/23 14:07:25;;;;;;;9.65;6.45;;;;;;;;;;4995877;28;20045;-82
2023/07/23 14:09:51;;;;;;;8.07;5.80;;;;;;;;;;5003385;28;20471;-82
2023/07/23 14:12:17;;;;;;;10.43;5.80;;;;;;;;;;5001738;28;20108;-84
2023/07/23 14:14:43;;;;;;;7.07;4.78;;;;;;;;;;4985618;28;20045;-84
2023/07/23 14:17:10;;;;;;;9.50;4.78;;;;;;;;;;5006029;28;20053;-84
2023/07/23 14:19:36;;;;;;;6.68;4.40;;;;;;;;;;4999040;28;20042;-84
2023/07/23 14:22:02;;;;;;;6.10;3.83;;;;;;;;;;4998253;28;20037;-84
2023/07/23 14:24:28;;;;;;;6.00;3.72;;;;;;;;;;5025290;28;20100;-85
2023/07/23 14:26:54;;;;;;;6.78;3.20;;;;;;;;;;4976712;28;20044;-84
2023/07/23 14:29:20;;;;;;;7.80;3.60;;;;;;;;;;4995737;28;20049;-85